Flight Track Log - Related Links

Times and Time Zones

All times are in EDT time to prevent confusion due to time zone crossing. See the LXJ541 flight status page for this flight to view local times or setup timezone preferences in your user account.

Time Position Orientation Groundspeed Altitude Reporting Facility
EDT Latitude Longitude Course Direction KTS MPH feet Rate Location/Type
Wed 05:23:59 PM 40.8833 -74.0500 311° West 179 206 2,100  Level New York TRACON
Wed 05:24:59 PM 40.9167 -74.1000 311° West 230 265 4,900 2,000 Climbing New York TRACON
Wed 05:25:59 PM 40.8833 -74.1833 242° Southwest 272 313 6,100 1,450 Climbing New York TRACON
Wed 05:26:59 PM 40.8167 -74.2167 201° Southwest 275 316 7,800 1,150 Climbing New York TRACON
Wed 05:27:59 PM 40.7333 -74.2333 189° South 291 335 8,400 1,550 Climbing New York TRACON
Wed 05:28:59 PM 40.6667 -74.2833 210° Southwest 308 354 10,900 1,339 Climbing New York TRACON
Wed 05:30:00 PM 40.5833 -74.3000 189° South 302 348 11,100 99 Climbing New York TRACON
Wed 05:31:00 PM 40.5167 -74.2333 143° Southeast 326 375 11,100 1,011 Level New York TRACON
Wed 05:32:58 PM 40.3908 -74.0600 134° Southeast 339 390 14,100 1,810 Climbing New York Center
Wed 05:33:59 PM 40.3072 -74.0725 187° South 300 345 16,500 1,475 Climbing New York Center
Wed 05:35:00 PM 40.2117 -74.1303 205° Southwest 343 395 17,100 1,581 Climbing New York Center
Wed 05:36:27 PM 40.0536 -74.2256 205° Southwest 385 443 20,400 1,959 Climbing Washington Center
Wed 05:37:27 PM 39.9503 -74.3033 210° Southwest 404 465 21,900 1,350 Climbing Washington Center
Wed 05:38:27 PM 39.8617 -74.3886 216° Southwest 418 481 23,100 1,050 Climbing Washington Center
Wed 05:39:27 PM 39.7853 -74.4708 220° Southwest 392 451 24,000 1,050 Climbing Washington Center
Wed 05:40:27 PM 39.7111 -74.5719 226° Southwest 385 443 25,200 1,950 Climbing Washington Center
Wed 05:41:27 PM 39.6328 -74.6728 225° Southwest 387 445 27,900 2,600 Climbing Washington Center
Wed 05:42:27 PM 39.5525 -74.7786 225° Southwest 399 459 30,400 2,500 Climbing Washington Center
Wed 05:43:27 PM 39.4719 -74.8872 226° Southwest 412 474 32,900 2,500 Climbing Washington Center
Wed 05:44:27 PM 39.3892 -74.9928 225° Southwest 417 480 35,400 2,200 Climbing Washington Center
Wed 05:45:27 PM 39.3083 -75.1008 226° Southwest 417 480 37,300 1,450 Climbing Washington Center
Wed 05:46:27 PM 39.2233 -75.2083 224° Southwest 417 480 38,300 900 Climbing Washington Center
Wed 05:47:27 PM 39.1483 -75.3081 226° Southwest 423 487 39,100 1,200 Climbing Washington Center
Wed 05:48:27 PM 39.0611 -75.4178 224° Southwest 439 505 40,700 1,500 Climbing Washington Center
Wed 05:49:27 PM 38.9444 -75.4689 199° South 439 505 42,100 1,150 Climbing Washington Center
Wed 05:50:27 PM 38.8172 -75.4744 182° South 427 491 43,000 450 Climbing Washington Center
Wed 05:51:27 PM 38.6903 -75.4881 185° South 444 511 43,000  Level Washington Center
Wed 05:52:27 PM 38.5631 -75.4961 183° South 459 528 43,000  Level Washington Center
Wed 05:53:27 PM 38.4192 -75.5094 184° South 473 544 43,000  Level Washington Center
Wed 05:54:27 PM 38.3067 -75.5308 188° South 478 550 43,000  Level Washington Center
Wed 05:55:27 PM 38.1878 -75.5917 202° Southwest 463 533 43,000  Level Washington Center
Wed 05:56:27 PM 38.0708 -75.6578 204° Southwest 458 527 43,000  Level Washington Center
Wed 05:57:27 PM 37.9583 -75.7233 205° Southwest 458 527 43,000  Level Washington Center
Wed 05:58:27 PM 37.8436 -75.7864 203° Southwest 458 527 43,000  Level Washington Center
Wed 05:59:27 PM 37.7267 -75.8464 202° Southwest 458 527 43,000  Level Washington Center
Wed 06:00:27 PM 37.6117 -75.9092 203° Southwest 458 527 43,000  Level Washington Center
Wed 06:01:27 PM 37.4969 -75.9714 203° Southwest 458 527 43,000  Level Washington Center
Wed 06:02:27 PM 37.3819 -76.0308 202° Southwest 458 527 43,000  Level Washington Center
Wed 06:03:27 PM 37.2647 -76.0928 203° Southwest 458 527 43,000  Level Washington Center
Wed 06:04:27 PM 37.1353 -76.1625 203° Southwest 458 527 43,000  Level Washington Center
Wed 06:05:27 PM 37.0264 -76.2111 200° South 458 527 43,000  Level Washington Center
Wed 06:06:27 PM 36.9114 -76.2700 202° Southwest 453 521 43,000  Level Washington Center
Wed 06:07:27 PM 36.7983 -76.3311 203° Southwest 453 521 43,000  Level Washington Center
Wed 06:08:27 PM 36.6833 -76.3947 204° Southwest 453 521 43,000  Level Washington Center
Wed 06:09:27 PM 36.5681 -76.4531 202° Southwest 453 521 43,000  Level Washington Center
Wed 06:11:27 PM 36.3356 -76.5717 202° Southwest 458 527 43,000  Level Washington Center
Wed 06:12:27 PM 36.2203 -76.6297 202° Southwest 458 527 43,000 -50 Level Washington Center
Wed 06:13:27 PM 36.1031 -76.6897 202° Southwest 458 527 42,900  Descending Washington Center
Wed 06:14:27 PM 35.9878 -76.7447 201° Southwest 458 527 43,000 50 Climbing Washington Center
Wed 06:15:27 PM 35.8725 -76.8044 203° Southwest 458 527 43,000  Level Washington Center
Wed 06:16:27 PM 35.7569 -76.8617 202° Southwest 458 527 43,000  Level Washington Center
Wed 06:17:27 PM 35.6375 -76.9186 201° Southwest 458 527 43,000  Level Washington Center
Wed 06:18:27 PM 35.5136 -76.9828 203° Southwest 452 520 43,000  Level Washington Center
Wed 06:19:27 PM 35.3939 -77.0444 203° Southwest 457 526 43,000  Level Washington Center
Wed 06:20:27 PM 35.2828 -77.1008 203° Southwest 457 526 43,000  Level Washington Center
Wed 06:21:27 PM 35.1653 -77.1572 201° Southwest 457 526 43,000  Level Washington Center
Wed 06:22:27 PM 35.0475 -77.2158 202° Southwest 457 526 43,000  Level Washington Center
Wed 06:23:27 PM 34.9300 -77.2742 202° Southwest 457 526 43,000  Level Washington Center
Wed 06:24:27 PM 34.8269 -77.3278 203° Southwest 451 519 43,000  Level Washington Center
Wed 06:25:27 PM 34.7092 -77.3833 201° Southwest 451 519 43,000  Level Washington Center
Wed 06:26:27 PM 34.5936 -77.4414 202° Southwest 451 519 43,000  Level Washington Center
Wed 06:27:27 PM 34.4697 -77.4864 197° South 457 526 43,000  Level Washington Center
Wed 06:28:27 PM 34.3461 -77.5264 195° South 457 526 43,000  Level Washington Center
Wed 06:30:19 PM 34.1114 -77.5983 194° South 463 533 43,000  Level Jacksonville Center
Wed 06:31:19 PM 33.9878 -77.6383 195° South 468 539 43,000  Level Jacksonville Center
Wed 06:32:19 PM 33.8625 -77.6833 197° South 468 539 43,000  Level Jacksonville Center
Wed 06:33:19 PM 33.7406 -77.7156 192° South 468 539 43,000  Level Jacksonville Center
Wed 06:34:20 PM 33.6150 -77.7578 196° South 467 537 43,000  Level Jacksonville Center
Wed 06:35:19 PM 33.4936 -77.7972 195° South 467 537 43,000  Level Jacksonville Center
Wed 06:36:19 PM 33.3697 -77.8342 194° South 467 537 43,000  Level Jacksonville Center
Wed 06:37:19 PM 33.2461 -77.8733 195° South 467 537 43,000  Level Jacksonville Center
Wed 06:38:19 PM 33.1206 -77.9153 196° South 467 537 43,000  Level Jacksonville Center
Wed 06:39:19 PM 32.9947 -77.9544 195° South 467 537 43,000  Level Jacksonville Center
Wed 06:40:19 PM 32.8711 -77.9908 194° South 467 537 43,000  Level Jacksonville Center
Wed 06:41:19 PM 32.7472 -78.0297 195° South 467 537 43,000  Level Jacksonville Center
Wed 06:42:19 PM 32.6214 -78.0683 194° South 472 543 43,000  Level Jacksonville Center
Wed 06:43:19 PM 32.4958 -78.1097 196° South 467 537 43,000  Level Jacksonville Center
Wed 06:44:19 PM 32.3697 -78.1433 193° South 467 537 43,000  Level Jacksonville Center
Wed 06:45:19 PM 32.2458 -78.1817 195° South 467 537 43,000  Level Jacksonville Center
Wed 06:46:19 PM 32.1200 -78.2175 194° South 467 537 43,000  Level Jacksonville Center
Wed 06:47:19 PM 31.9861 -78.2661 197° South 467 537 43,000  Level Jacksonville Center
Wed 06:48:19 PM 31.8603 -78.3089 196° South 467 537 43,000  Level Jacksonville Center
Wed 06:49:19 PM 31.7386 -78.3517 197° South 459 528 43,000  Level Jacksonville Center
Wed 06:50:19 PM 31.6214 -78.4014 200° South 452 520 43,000  Level Jacksonville Center
Wed 06:51:19 PM 31.5000 -78.4533 200° South 463 533 43,000  Level Jacksonville Center
Wed 06:52:19 PM 31.3828 -78.5053 201° Southwest 463 533 43,000  Level Jacksonville Center
Wed 06:53:19 PM 31.2656 -78.5544 200° South 458 527 43,000  Level Jacksonville Center
Wed 06:54:19 PM 31.1483 -78.6036 200° South 457 526 43,000  Level Jacksonville Center
Wed 06:55:19 PM 31.0308 -78.6500 199° South 457 526 43,000  Level Jacksonville Center
Wed 06:56:19 PM 30.9136 -78.7014 201° Southwest 448 516 43,000  Level Jacksonville Center
Wed 06:57:19 PM 30.7983 -78.7500 200° South 448 516 43,000  Level Jacksonville Center
Wed 06:58:20 PM 30.6747 -78.7989 199° South 448 516 43,000  Level Jacksonville Center
Wed 06:59:08 PM 30.5875 -78.8358 200° South 441 507 43,000  Level Miami Center
Wed 07:00:08 PM 30.4722 -78.8842 200° South 441 507 43,000  Level Miami Center
Wed 07:01:08 PM 30.3569 -78.9325 200° South 447 514 43,000 -50 Level Miami Center
Wed 07:02:08 PM 30.2353 -78.9806 199° South 447 514 42,900  Descending Miami Center
Wed 07:03:08 PM 30.1222 -79.0286 200° South 447 514 43,000 50 Climbing Miami Center
Wed 07:04:08 PM 30.0128 -79.0911 206° Southwest 447 514 43,000  Level Miami Center
Wed 07:05:08 PM 29.8933 -79.1339 197° South 447 514 43,000  Level Miami Center
Wed 07:06:08 PM 29.7697 -79.1647 192° South 447 514 43,000  Level Miami Center
Wed 07:07:08 PM 29.6481 -79.1981 193° South 452 520 43,000  Level Miami Center
Wed 07:08:08 PM 29.5267 -79.2311 193° South 452 520 43,000  Level Miami Center
Wed 07:09:08 PM 29.4031 -79.2619 192° South 452 520 43,000  Level Miami Center
Wed 07:10:08 PM 29.2775 -79.2925 192° South 452 520 43,000  Level Miami Center
Wed 07:11:08 PM 29.1539 -79.3253 193° South 452 520 43,000  Level Miami Center
Wed 07:12:08 PM 29.0281 -79.3533 191° South 452 520 43,000  Level Miami Center
Wed 07:13:08 PM 28.9025 -79.3861 193° South 452 520 43,000  Level Miami Center
Wed 07:14:08 PM 28.7808 -79.4189 193° South 452 520 43,000  Level Miami Center
Wed 07:15:08 PM 28.6781 -79.4403 190° South 452 520 43,000  Level Miami Center
Wed 07:16:08 PM 28.5481 -79.4728 192° South 452 520 43,000  Level Miami Center
Wed 07:17:08 PM 28.4244 -79.5053 193° South 452 520 43,000 -100 Level Miami Center
Wed 07:18:08 PM 28.2986 -79.5353 192° South 452 520 42,800 -1,250 Descending Miami Center
Wed 07:19:08 PM 28.1728 -79.5653 192° South 452 520 40,500 -2,350 Descending Miami Center
Wed 07:20:08 PM 28.0492 -79.5953 192° South 452 520 38,100 -2,400 Descending Miami Center
Wed 07:21:08 PM 27.9233 -79.6250 192° South 452 520 35,700 -2,550 Descending Miami Center
Wed 07:22:08 PM 27.7808 -79.6544 190° South 465 535 33,000 -2,450 Descending Miami Center
Wed 07:23:08 PM 27.6597 -79.6586 182° South 481 554 30,800 -2,250 Descending Miami Center
Wed 07:24:08 PM 27.5258 -79.6622 181° South 486 559 28,500 -2,450 Descending Miami Center
Wed 07:25:08 PM 27.3797 -79.6658 181° South 481 554 25,900 -2,350 Descending Miami Center
Wed 07:26:08 PM 27.2542 -79.6697 182° South 476 548 23,800 -2,050 Descending Miami Center
Wed 07:27:08 PM 27.1353 -79.6739 182° South 444 511 21,800 -2,000 Descending Miami Center
Wed 07:28:08 PM 27.0308 -79.6761 181° South 429 494 19,800 -2,000 Descending Miami Center
Wed 07:29:08 PM 26.9117 -79.6800 182° South 424 488 17,800 -2,100 Descending Miami Center
Wed 07:30:08 PM 26.7900 -79.7097 192° South 416 479 15,600 -2,100 Descending Miami Center
Wed 07:31:08 PM 26.6847 -79.7492 199° South 409 471 13,600 -1,949 Descending Miami Center
Wed 07:32:05 PM 26.5836 -79.7839 197° South 392 451 11,800 -1,800 Descending Miami Center
Wed 07:33:08 PM 26.4892 -79.8139 196° South 364 419 10,000 -1,561 Descending Miami Center
Wed 07:34:08 PM 26.4111 -79.8444 199° South 322 371 8,600 -1,403 Descending Miami Center
Wed 07:34:25 PM 26.3900 -79.8556 205° Southwest 279 321 8,200 -600 Descending Miami Center
Wed 07:35:08 PM 26.3519 -79.8869 216° Southwest 288 331 8,000 -197 Descending Miami Center
Wed 07:35:26 PM 26.3283 -79.9119 224° Southwest 291 335 8,000 -700 Level Miami Center
Wed 07:36:08 PM 26.2858 -79.9503 219° Southwest 288 331 7,300 -1,176 Descending Miami Center
Wed 07:37:08 PM 26.2325 -80.0019 221° Southwest 271 312 6,000 -650 Descending Miami Center
Wed 07:38:08 PM 26.1811 -80.0608 226° Southwest 266 306 6,000  Level Miami Center
Wed 07:39:08 PM 26.1583 -80.1389 252° West 266 306 6,000 -733 Level Miami Center
Wed 07:40:19 PM 26.1519 -80.2406 266° West 261 300 4,400 -1,136 Descending Miami Center
Wed 07:41:20 PM 26.1356 -80.3119 256° West 246 283 3,500 -1,230 Descending Miami Center
Wed 07:42:21 PM 26.0883 -80.2828 151° Southeast 235 270 1,900 -984 Descending Miami Center
Wed 07:43:22 PM 26.0769 -80.2269 103° East 152 175 1,500 -738 Descending Miami Center
Wed 07:44:23 PM 26.0736 -80.1897 96° East 96 110 400 -1,082 Descending Miami Center
Wed 07:46:00 PM 26.0667 -80.1500 103° East  Level FlightAware Approximate

Login

Don't have an account? Register now (free) for customized features, flight alerts, and more!